createdAt,value
2018-05-25T00:01:43.283Z,98271.97
2018-05-25T00:04:11.538Z,98266.92
2018-05-25T00:06:40.571Z,98273.98
2018-05-25T00:09:08.886Z,98273.80
2018-05-25T00:11:37.141Z,98275.07
2018-05-25T00:14:05.420Z,98274.53
2018-05-25T00:16:33.671Z,98271.34
2018-05-25T00:19:01.930Z,98275.98
2018-05-25T00:21:30.217Z,98278.21
2018-05-25T00:23:58.451Z,98265.91
2018-05-25T00:26:26.717Z,98278.59
2018-05-25T00:28:54.982Z,98274.01
2018-05-25T00:31:23.232Z,98286.61
2018-05-25T00:33:51.499Z,98278.34
2018-05-25T00:36:19.772Z,98288.08
2018-05-25T00:38:48.045Z,98285.00
2018-05-25T00:41:16.304Z,98286.09
2018-05-25T00:43:44.556Z,98277.78
2018-05-25T00:46:12.822Z,98279.44
2018-05-25T00:48:41.074Z,98275.67
2018-05-25T00:51:09.357Z,98282.83
2018-05-25T00:53:37.608Z,98280.63
2018-05-25T00:56:05.865Z,98278.52
2018-05-25T00:58:34.155Z,98283.28
2018-05-25T01:01:02.430Z,98273.73
2018-05-25T01:03:30.716Z,98282.72
2018-05-25T01:05:58.972Z,98284.81
2018-05-25T01:08:27.224Z,98284.36
2018-05-25T01:10:56.266Z,98285.42
2018-05-25T01:13:24.530Z,98277.25
2018-05-25T01:15:52.905Z,98277.43
2018-05-25T01:18:21.156Z,98283.26
2018-05-25T01:20:50.177Z,98278.95
2018-05-25T01:23:18.472Z,98276.33
2018-05-25T01:25:46.729Z,98276.78
2018-05-25T01:28:14.994Z,98276.70
2018-05-25T01:30:43.260Z,98274.36
2018-05-25T01:33:12.277Z,98273.52
2018-05-25T01:35:40.545Z,98273.44
2018-05-25T01:38:08.806Z,98270.78
2018-05-25T01:40:37.924Z,98267.83
2018-05-25T01:43:06.209Z,98264.28
2018-05-25T01:45:34.473Z,98270.42
2018-05-25T01:48:02.853Z,98267.52
2018-05-25T01:50:31.112Z,98271.66
2018-05-25T01:52:59.396Z,98270.28
2018-05-25T01:55:27.667Z,98263.07
2018-05-25T01:57:55.922Z,98265.35
2018-05-25T02:00:24.950Z,98261.07
2018-05-25T02:02:53.210Z,98260.23
2018-05-25T02:05:21.485Z,98261.02
2018-05-25T02:07:50.500Z,98260.06
2018-05-25T02:10:18.762Z,98261.23
2018-05-25T02:12:47.045Z,98259.73
2018-05-25T02:15:15.293Z,98260.70
2018-05-25T02:17:44.409Z,98258.73
2018-05-25T02:20:12.697Z,98257.33
2018-05-25T02:22:40.959Z,98260.39
2018-05-25T02:25:09.988Z,98249.19
2018-05-25T02:27:38.249Z,98253.20
2018-05-25T02:30:06.573Z,98245.22
2018-05-25T02:32:34.824Z,98257.07
2018-05-25T02:35:03.094Z,98255.24
2018-05-25T02:37:31.375Z,98252.06
2018-05-25T02:39:59.631Z,98245.89
2018-05-25T02:42:27.902Z,98248.80
2018-05-25T02:44:56.164Z,98241.00
2018-05-25T02:47:24.449Z,98246.57
2018-05-25T02:49:52.733Z,98238.97
2018-05-25T02:52:20.999Z,98247.47
2018-05-25T02:54:49.276Z,98246.19
2018-05-25T02:57:17.593Z,98244.24
2018-05-25T02:59:45.840Z,98243.84
2018-05-25T03:02:14.090Z,98246.88
2018-05-25T03:04:42.380Z,98245.80
2018-05-25T03:07:10.649Z,98242.26
2018-05-25T03:09:38.913Z,98239.20
2018-05-25T03:12:07.948Z,98245.22
2018-05-25T03:14:36.224Z,98240.33
2018-05-25T03:17:04.584Z,98245.13
2018-05-25T03:19:32.857Z,98249.56
2018-05-25T03:22:01.113Z,98243.97
2018-05-25T03:24:30.235Z,98241.75
2018-05-25T03:26:58.505Z,98243.59
2018-05-25T03:29:26.805Z,98232.83
2018-05-25T03:31:55.110Z,98238.90
2018-05-25T03:34:23.454Z,98233.98
2018-05-25T03:36:51.716Z,98230.15
2018-05-25T03:39:20.002Z,98230.89
2018-05-25T03:41:48.274Z,98237.78
2018-05-25T03:44:16.540Z,98241.69
2018-05-25T03:46:44.824Z,98242.45
2018-05-25T03:49:13.081Z,98242.06
2018-05-25T03:51:43.021Z,98243.25
2018-05-25T03:54:11.271Z,98241.53
2018-05-25T03:56:39.542Z,98240.96
2018-05-25T03:59:26.245Z,98243.49
2018-05-25T04:02:01.433Z,98242.67
2018-05-25T04:04:29.801Z,98246.48
2018-05-25T04:06:58.069Z,98245.11
2018-05-25T04:09:27.185Z,98251.88
2018-05-25T04:11:55.433Z,98252.34
2018-05-25T04:14:23.723Z,98250.42
2018-05-25T04:16:51.991Z,98253.03
2018-05-25T04:19:20.277Z,98257.37
2018-05-25T04:21:48.546Z,98263.37
2018-05-25T04:24:16.828Z,98258.56
2018-05-25T04:26:45.085Z,98261.06
2018-05-25T04:29:13.368Z,98263.50
2018-05-25T04:31:41.649Z,98268.20
2018-05-25T04:34:09.926Z,98267.54
2018-05-25T04:36:38.173Z,98264.52
2018-05-25T04:39:07.204Z,98273.51
2018-05-25T04:41:35.453Z,98270.17
2018-05-25T04:44:05.279Z,98273.17
2018-05-25T04:46:33.541Z,98269.69
2018-05-25T04:49:02.572Z,98267.72
2018-05-25T04:51:30.841Z,98277.08
2018-05-25T04:53:59.093Z,98270.52
2018-05-25T04:56:27.344Z,98263.49
2018-05-25T04:58:56.915Z,98265.30
2018-05-25T05:01:25.157Z,98267.93
2018-05-25T05:03:53.424Z,98268.45
2018-05-25T05:06:22.441Z,98279.23
2018-05-25T05:08:50.692Z,98279.33
2018-05-25T05:11:19.720Z,98272.30
2018-05-25T05:13:47.981Z,98276.11
2018-05-25T05:16:16.366Z,98279.31
2018-05-25T05:18:44.622Z,98275.14
2018-05-25T05:21:13.742Z,98276.89
2018-05-25T05:23:42.098Z,98279.88
2018-05-25T05:26:10.403Z,98283.51
2018-05-25T05:28:38.662Z,98275.17
2018-05-25T05:31:06.921Z,98278.58
2018-05-25T05:33:35.969Z,98276.63
2018-05-25T05:36:04.244Z,98284.03
2018-05-25T05:38:32.492Z,98283.40
2018-05-25T05:41:00.762Z,98284.62
2018-05-25T05:43:32.025Z,98280.13
2018-05-25T05:46:00.292Z,98287.36
2018-05-25T05:48:28.544Z,98289.89
2018-05-25T05:50:57.566Z,98281.00
2018-05-25T05:53:25.837Z,98281.81
2018-05-25T05:55:54.086Z,98284.13
2018-05-25T05:58:23.128Z,98285.18
2018-05-25T06:00:51.377Z,98288.68
2018-05-25T06:03:19.637Z,98293.34
2018-05-25T06:05:47.910Z,98283.03
2018-05-25T06:08:16.932Z,98291.02
2018-05-25T06:10:45.189Z,98294.52
2018-05-25T06:13:13.440Z,98294.06
2018-05-25T06:15:42.476Z,98299.21
2018-05-25T06:18:10.745Z,98298.17
2018-05-25T06:20:39.021Z,98299.96
2018-05-25T06:23:07.281Z,98300.14
2018-05-25T06:25:35.540Z,98296.14
2018-05-25T06:28:04.565Z,98298.91
2018-05-25T06:30:32.839Z,98298.95
2018-05-25T06:33:01.089Z,98308.10
2018-05-25T06:35:30.128Z,98305.17
2018-05-25T06:37:58.379Z,98308.30
2018-05-25T06:40:26.640Z,98305.55
2018-05-25T06:42:55.674Z,98306.53
2018-05-25T06:45:23.922Z,98302.73
2018-05-25T06:47:52.196Z,98314.26
2018-05-25T06:50:20.451Z,98316.86
2018-05-25T06:52:49.474Z,98311.89
2018-05-25T06:55:17.753Z,98311.21
2018-05-25T06:57:45.995Z,98312.06
2018-05-25T07:00:15.034Z,98315.09
2018-05-25T07:02:43.286Z,98317.94
2018-05-25T07:05:11.549Z,98321.86
2018-05-25T07:07:40.576Z,98332.84
2018-05-25T07:10:08.836Z,98332.97
2018-05-25T07:12:37.102Z,98333.05
2018-05-25T07:15:06.146Z,98335.44
2018-05-25T07:17:34.386Z,98335.17
2018-05-25T07:20:02.656Z,98332.23
2018-05-25T07:22:30.913Z,98335.22
2018-05-25T07:24:59.949Z,98342.52
2018-05-25T07:27:28.204Z,98334.13
2018-05-25T07:29:56.485Z,98335.23
2018-05-25T07:32:24.749Z,98329.66
2018-05-25T07:34:53.778Z,98334.13
2018-05-25T07:37:22.046Z,98336.28
2018-05-25T07:39:50.289Z,98340.62
2018-05-25T07:42:19.317Z,98340.52
2018-05-25T07:44:47.564Z,98342.27
2018-05-25T07:47:16.596Z,98352.47
2018-05-25T07:49:44.866Z,98346.72
2018-05-25T07:52:13.120Z,98340.91
2018-05-25T07:54:41.396Z,98339.51
2018-05-25T07:57:09.669Z,98341.66
2018-05-25T07:59:37.929Z,98335.84
2018-05-25T08:02:06.953Z,98353.31
2018-05-25T08:04:35.204Z,98352.78
2018-05-25T08:07:04.234Z,98351.48
2018-05-25T08:09:32.493Z,98353.52
2018-05-25T08:12:00.803Z,98349.82
2018-05-25T08:14:29.055Z,98350.75
2018-05-25T08:16:57.315Z,98351.66
2018-05-25T08:19:26.417Z,98352.94
2018-05-25T08:21:54.742Z,98354.47
2018-05-25T08:24:22.972Z,98357.88
2018-05-25T08:26:51.346Z,98354.80
2018-05-25T08:29:19.645Z,98363.82
2018-05-25T08:31:47.912Z,98357.72
2018-05-25T08:34:16.187Z,98359.27
2018-05-25T08:36:44.437Z,98357.14
2018-05-25T08:39:13.559Z,98353.05
2018-05-25T08:41:41.825Z,98352.50
2018-05-25T08:44:10.104Z,98355.25
2018-05-25T08:46:38.389Z,98352.34
2018-05-25T08:49:06.658Z,98362.42
2018-05-25T08:51:34.909Z,98362.77
2018-05-25T08:54:03.930Z,98365.27
2018-05-25T08:56:33.168Z,98363.68
2018-05-25T08:59:01.494Z,98359.92
2018-05-25T09:01:29.694Z,98357.69
2018-05-25T09:03:57.953Z,98361.27
2018-05-25T09:06:26.256Z,98366.70
2018-05-25T09:08:54.510Z,98377.27
2018-05-25T09:11:22.798Z,98374.02
2018-05-25T09:13:51.051Z,98378.02
2018-05-25T09:16:19.316Z,98373.09
2018-05-25T09:18:48.429Z,98371.92
2018-05-25T09:21:16.685Z,98372.66
2018-05-25T09:23:45.792Z,98371.59
2018-05-25T09:26:14.056Z,98370.70
2018-05-25T09:28:43.182Z,98378.41
2018-05-25T09:31:11.548Z,98373.55
2018-05-25T09:33:39.828Z,98377.69
2018-05-25T09:36:08.129Z,98370.19
2018-05-25T09:38:36.378Z,98372.89
2018-05-25T09:41:04.639Z,98373.49
2018-05-25T09:43:33.678Z,98365.80
2018-05-25T09:46:02.036Z,98367.67
2018-05-25T09:48:30.298Z,98367.94
2018-05-25T09:50:58.552Z,98369.03
2018-05-25T09:53:27.669Z,98364.97
2018-05-25T09:55:55.970Z,98363.44
2018-05-25T09:58:24.246Z,98363.51
2018-05-25T10:00:52.509Z,98370.64
2018-05-25T10:03:20.760Z,98373.14
2018-05-25T10:05:49.801Z,98368.20
2018-05-25T10:08:18.050Z,98367.34
2018-05-25T10:10:46.332Z,98357.85
2018-05-25T10:13:14.592Z,98360.58
2018-05-25T10:15:42.848Z,98362.86
2018-05-25T10:18:11.877Z,98361.20
2018-05-25T10:20:40.138Z,98359.05
2018-05-25T10:23:08.393Z,98360.27
2018-05-25T10:25:37.524Z,98356.64
2018-05-25T10:28:05.775Z,98360.26
2018-05-25T10:30:34.076Z,98354.68
2018-05-25T10:33:02.344Z,98358.61
2018-05-25T10:35:30.606Z,98351.87
2018-05-25T10:37:59.637Z,98353.75
2018-05-25T10:40:27.991Z,98357.52
2018-05-25T10:42:56.286Z,98346.81
2018-05-25T10:45:24.550Z,98351.78
2018-05-25T10:47:52.837Z,98352.23
2018-05-25T10:50:21.089Z,98349.73
2018-05-25T10:52:50.117Z,98352.44
2018-05-25T10:55:18.470Z,98350.99
2018-05-25T10:57:46.760Z,98349.25
2018-05-25T11:00:15.012Z,98343.43
2018-05-25T11:02:44.045Z,98348.61
2018-05-25T11:05:12.319Z,98335.71
2018-05-25T11:07:40.679Z,98340.52
2018-05-25T11:10:08.938Z,98335.08
2018-05-25T11:12:37.977Z,98335.75
2018-05-25T11:15:06.252Z,98332.84
2018-05-25T11:17:34.508Z,98334.20
2018-05-25T11:20:02.883Z,98331.45
2018-05-25T11:22:31.137Z,98326.16
2018-05-25T11:25:00.254Z,98317.88
2018-05-25T11:27:28.537Z,98320.02
2018-05-25T11:29:57.795Z,98314.52
2018-05-25T11:32:26.832Z,98318.34
2018-05-25T11:34:55.101Z,98312.71
2018-05-25T11:37:23.344Z,98316.80
2018-05-25T11:39:52.468Z,98306.75
2018-05-25T11:42:20.717Z,98309.70
2018-05-25T11:44:49.846Z,98313.19
2018-05-25T11:47:18.093Z,98311.94
2018-05-25T11:49:47.116Z,98308.63
2018-05-25T11:52:15.391Z,98308.36
2018-05-25T11:54:43.628Z,98311.92
2018-05-25T11:57:12.664Z,98305.92
2018-05-25T11:59:40.921Z,98299.14
2018-05-25T12:02:09.170Z,98301.20
2018-05-25T12:04:37.484Z,98292.97
2018-05-25T12:07:05.756Z,98294.30
2018-05-25T12:09:34.030Z,98295.19
2018-05-25T12:12:02.296Z,98294.42
2018-05-25T12:14:31.326Z,98299.75
2018-05-25T12:16:59.604Z,98300.50
2018-05-25T12:19:27.857Z,98302.04
2018-05-25T12:21:56.116Z,98299.47
2018-05-25T12:24:25.189Z,98305.78
2018-05-25T12:26:53.437Z,98301.69
2018-05-25T12:29:21.811Z,98295.73
2018-05-25T12:31:50.079Z,98299.16
2018-05-25T12:34:18.343Z,98294.60
2018-05-25T12:36:46.604Z,98288.80
2018-05-25T12:39:14.883Z,98290.62
2018-05-25T12:41:43.130Z,98290.16
2018-05-25T12:44:11.438Z,98287.18
2018-05-25T12:46:39.737Z,98282.16
2018-05-25T12:49:07.985Z,98292.71
2018-05-25T12:51:36.237Z,98287.92
2018-05-25T12:54:05.285Z,98291.79
2018-05-25T12:56:33.537Z,98290.38
2018-05-25T12:59:01.800Z,98296.93
2018-05-25T13:01:30.093Z,98293.47
2018-05-25T13:03:58.370Z,98285.21
2018-05-25T13:06:26.636Z,98291.39
2018-05-25T13:08:54.904Z,98284.09
2018-05-25T13:11:23.969Z,98291.67
2018-05-25T13:13:52.285Z,98294.66
2018-05-25T13:16:20.573Z,98292.91
2018-05-25T13:18:48.861Z,98292.20
2018-05-25T13:21:17.108Z,98294.14
2018-05-25T13:23:45.505Z,98287.00
2018-05-25T13:26:13.785Z,98298.12
2018-05-25T13:28:42.036Z,98284.88
2018-05-25T13:31:11.096Z,98294.08
2018-05-25T13:33:39.431Z,98291.05
2018-05-25T13:36:07.692Z,98287.02
2018-05-25T13:38:35.969Z,98284.30
2018-05-25T13:41:05.068Z,98280.66
2018-05-25T13:43:33.324Z,98278.34
2018-05-25T13:46:02.366Z,98286.77
2018-05-25T13:48:30.629Z,98290.91
2018-05-25T13:50:58.889Z,98292.02
2018-05-25T13:53:27.158Z,98293.34
2018-05-25T13:55:56.217Z,98284.23
2018-05-25T13:58:24.492Z,98283.25
2018-05-25T14:00:52.774Z,98283.00
2018-05-25T14:03:21.048Z,98295.03
2018-05-25T14:05:49.319Z,98283.88
2018-05-25T14:08:17.576Z,98283.28
2018-05-25T14:10:45.861Z,98279.27
2018-05-25T14:13:14.125Z,98278.49
2018-05-25T14:15:42.424Z,98288.91
2018-05-25T14:18:10.676Z,98284.46
2018-05-25T14:20:38.942Z,98293.10
2018-05-25T14:23:07.212Z,98291.59
2018-05-25T14:25:35.464Z,98295.42
2018-05-25T14:28:04.515Z,98294.73
2018-05-25T14:30:32.773Z,98296.89
2018-05-25T14:33:01.065Z,98296.50
2018-05-25T14:35:29.374Z,98289.62
2018-05-25T14:37:58.389Z,98284.69
2018-05-25T14:40:26.653Z,98280.70
2018-05-25T14:42:55.882Z,98278.06
2018-05-25T14:45:24.149Z,98283.84
2018-05-25T14:47:52.499Z,98285.56
2018-05-25T14:50:21.549Z,98286.66
2018-05-25T14:52:49.839Z,98282.38
2018-05-25T14:55:18.093Z,98275.08
2018-05-25T14:57:46.356Z,98279.28
2018-05-25T15:00:14.634Z,98274.44
2018-05-25T15:02:42.895Z,98280.96
2018-05-25T15:05:11.164Z,98276.08
2018-05-25T15:07:39.424Z,98275.04
2018-05-25T15:10:08.448Z,98283.30
2018-05-25T15:12:36.722Z,98286.73
2018-05-25T15:15:08.043Z,98275.52
2018-05-25T15:17:36.309Z,98283.15
2018-05-25T15:20:04.580Z,98275.98
2018-05-25T15:22:32.858Z,98280.78
2018-05-25T15:25:01.162Z,98275.96
2018-05-25T15:27:30.202Z,98278.75
2018-05-25T15:29:58.515Z,98283.12
2018-05-25T15:32:26.765Z,98282.09
2018-05-25T15:34:55.013Z,98285.77
2018-05-25T15:37:23.302Z,98279.80
2018-05-25T15:39:51.601Z,98276.05
2018-05-25T15:42:19.865Z,98277.69
2018-05-25T15:44:48.129Z,98275.02
2018-05-25T15:47:16.410Z,98274.05
2018-05-25T15:49:44.696Z,98274.62
2018-05-25T15:52:12.984Z,98278.78
2018-05-25T15:54:41.256Z,98277.88
2018-05-25T15:57:09.492Z,98279.56
2018-05-25T15:59:37.745Z,98269.20
2018-05-25T16:02:06.780Z,98266.09
2018-05-25T16:04:35.052Z,98263.80
2018-05-25T16:07:03.317Z,98263.39
2018-05-25T16:09:31.640Z,98261.52
2018-05-25T16:11:59.892Z,98263.03
2018-05-25T16:14:28.157Z,98257.83
2018-05-25T16:16:56.413Z,98263.03
2018-05-25T16:19:24.710Z,98264.34
2018-05-25T16:21:52.960Z,98265.38
2018-05-25T16:24:21.237Z,98257.97
2018-05-25T16:26:49.500Z,98252.56
2018-05-25T16:29:18.520Z,98255.25
2018-05-25T16:31:46.782Z,98248.45
2018-05-25T16:34:15.086Z,98248.27
2018-05-25T16:36:44.056Z,98250.38
2018-05-25T16:39:12.344Z,98249.49
2018-05-25T16:41:40.642Z,98242.80
2018-05-25T16:44:08.918Z,98244.70
2018-05-25T16:46:37.388Z,98239.53
2018-05-25T16:49:05.632Z,98246.36
2018-05-25T16:51:34.665Z,98247.16
2018-05-25T16:54:02.934Z,98247.86
2018-05-25T16:56:31.204Z,98252.22
2018-05-25T16:58:59.449Z,98255.16
2018-05-25T17:01:28.481Z,98256.16
2018-05-25T17:03:56.744Z,98259.50
2018-05-25T17:06:25.012Z,98259.44
2018-05-25T17:08:54.281Z,98255.91
2018-05-25T17:11:22.549Z,98264.33
2018-05-25T17:13:50.865Z,98276.18
2018-05-25T17:16:19.133Z,98273.52
2018-05-25T17:18:47.388Z,98270.55
2018-05-25T17:21:16.429Z,98270.19
2018-05-25T17:23:44.674Z,98271.34
2018-05-25T17:26:13.698Z,98269.51
2018-05-25T17:28:42.021Z,98281.48
2018-05-25T17:31:11.408Z,98285.46
2018-05-25T17:33:39.746Z,98292.09
2018-05-25T17:36:08.074Z,98304.08
2018-05-25T17:38:36.276Z,98307.98
2018-05-25T17:41:05.308Z,98322.63
2018-05-25T17:43:33.575Z,98313.00
2018-05-25T17:46:01.851Z,98324.03
2018-05-25T17:48:30.147Z,98325.27
2018-05-25T17:50:59.177Z,98330.83
2018-05-25T17:53:28.241Z,98328.41
2018-05-25T17:55:56.516Z,98325.15
2018-05-25T17:58:24.857Z,98327.38
2018-05-25T18:00:53.244Z,98320.14
2018-05-25T18:03:21.498Z,98323.23
2018-05-25T18:05:50.569Z,98323.32
2018-05-25T18:08:18.859Z,98324.59
2018-05-25T18:10:47.881Z,98324.55
2018-05-25T18:13:16.266Z,98316.02
2018-05-25T18:15:44.549Z,98320.17
2018-05-25T18:18:12.799Z,98315.49
2018-05-25T18:20:41.836Z,98324.99
2018-05-25T18:23:10.865Z,98328.33
2018-05-25T18:25:39.935Z,98328.82
2018-05-25T18:28:08.204Z,98328.70
2018-05-25T18:30:36.499Z,98332.78
2018-05-25T18:33:04.758Z,98333.86
2018-05-25T18:35:33.043Z,98337.83
2018-05-25T18:38:01.289Z,98333.91
2018-05-25T18:40:29.550Z,98339.84
2018-05-25T18:42:57.864Z,98340.55
2018-05-25T18:45:26.145Z,98342.83
2018-05-25T18:47:54.554Z,98334.72
2018-05-25T18:50:22.883Z,98333.42
2018-05-25T18:52:51.187Z,98336.50
2018-05-25T18:55:19.490Z,98340.15
2018-05-25T18:57:48.599Z,98339.69
2018-05-25T19:00:16.903Z,98336.71
2018-05-25T19:02:45.203Z,98333.05
2018-05-25T19:05:13.600Z,98333.95
2018-05-25T19:07:42.017Z,98328.06
2018-05-25T19:10:10.322Z,98332.41
2018-05-25T19:12:38.589Z,98336.09
2018-05-25T19:15:06.931Z,98346.05
2018-05-25T19:17:36.016Z,98342.29
2018-05-25T19:20:05.085Z,98348.45
2018-05-25T19:22:33.346Z,98349.76
2018-05-25T19:25:01.614Z,98354.89
2018-05-25T19:27:30.040Z,98360.94
2018-05-25T19:29:58.362Z,98363.83
2018-05-25T19:32:26.844Z,98363.78
2018-05-25T19:34:55.148Z,98364.51
2018-05-25T19:37:23.564Z,98363.20
2018-05-25T19:39:52.844Z,98372.33
2018-05-25T19:42:22.547Z,98372.00
2018-05-25T19:44:50.989Z,98374.56
2018-05-25T19:47:20.159Z,98384.31
2018-05-25T19:49:48.884Z,98385.70
2018-05-25T19:52:17.824Z,98392.03
2018-05-25T19:54:46.911Z,98392.61
2018-05-25T19:57:15.980Z,98394.45
2018-05-25T19:59:44.949Z,98398.16
2018-05-25T20:02:14.197Z,98393.42
2018-05-25T20:04:44.165Z,98401.22
2018-05-25T20:07:14.268Z,98405.27
2018-05-25T20:09:43.363Z,98404.92
2018-05-25T20:12:12.641Z,98411.53
2018-05-25T20:14:42.031Z,98407.28
2018-05-25T20:17:11.390Z,98407.31
2018-05-25T20:19:40.588Z,98407.34
2018-05-25T20:22:10.015Z,98403.94
2018-05-25T20:24:39.321Z,98404.54
2018-05-25T20:27:08.453Z,98403.97
2018-05-25T20:29:37.874Z,98400.67
2018-05-25T20:32:07.868Z,98398.14
2018-05-25T20:34:37.226Z,98402.84
2018-05-25T20:37:06.537Z,98396.88
2018-05-25T20:39:35.939Z,98394.70
2018-05-25T20:42:05.356Z,98392.98
2018-05-25T20:44:34.578Z,98387.95
2018-05-25T20:47:04.025Z,98386.44
2018-05-25T20:49:33.191Z,98387.14
2018-05-25T20:52:02.076Z,98388.06
2018-05-25T20:54:31.339Z,98390.13
2018-05-25T20:57:00.098Z,98390.27
2018-05-25T20:59:29.858Z,98384.39
2018-05-25T21:01:58.604Z,98386.16
2018-05-25T21:04:27.981Z,98383.52
2018-05-25T21:06:56.468Z,98379.08
2018-05-25T21:09:25.055Z,98387.12
2018-05-25T21:11:53.804Z,98387.38
2018-05-25T21:14:23.209Z,98392.26
2018-05-25T21:16:51.522Z,98385.56
2018-05-25T21:19:19.818Z,98383.69
2018-05-25T21:21:48.074Z,98387.22
2018-05-25T21:24:16.421Z,98378.68
2018-05-25T21:26:45.458Z,98385.36
2018-05-25T21:29:13.730Z,98388.03
2018-05-25T21:31:42.018Z,98387.58
2018-05-25T21:34:11.081Z,98378.13
2018-05-25T21:36:39.500Z,98378.55
2018-05-25T21:39:08.023Z,98384.95
2018-05-25T21:41:37.088Z,98380.61
2018-05-25T21:44:05.358Z,98378.02
2018-05-25T21:46:33.638Z,98381.39
2018-05-25T21:49:01.962Z,98377.55
2018-05-25T21:51:30.224Z,98379.18
2018-05-25T21:53:59.250Z,98382.69
2018-05-25T21:56:27.516Z,98383.59
2018-05-25T21:58:55.763Z,98381.94
2018-05-25T22:01:24.805Z,98385.80
2018-05-25T22:03:53.107Z,98387.39
2018-05-25T22:06:21.368Z,98394.69
2018-05-25T22:08:50.545Z,98395.41
2018-05-25T22:11:18.805Z,98394.92
2018-05-25T22:13:47.059Z,98399.05
2018-05-25T22:16:16.129Z,98398.23
2018-05-25T22:18:45.183Z,98404.56
2018-05-25T22:21:14.319Z,98412.61
2018-05-25T22:23:42.617Z,98413.88
2018-05-25T22:26:11.705Z,98418.80
2018-05-25T22:28:40.087Z,98418.17
2018-05-25T22:31:08.384Z,98417.30
2018-05-25T22:33:37.427Z,98415.48
2018-05-25T22:36:05.721Z,98409.39
2018-05-25T22:38:34.009Z,98418.66
2018-05-25T22:41:02.270Z,98419.65
2018-05-25T22:43:48.315Z,98426.94
2018-05-25T22:46:34.395Z,98422.17
2018-05-25T22:49:21.463Z,98422.09
2018-05-25T22:52:07.503Z,98426.09
2018-05-25T22:54:42.319Z,98420.48
2018-05-25T22:57:11.380Z,98424.29
2018-05-25T22:59:39.660Z,98422.35
2018-05-25T23:02:07.926Z,98419.94
2018-05-25T23:04:36.181Z,98420.80
2018-05-25T23:07:04.515Z,98421.48
2018-05-25T23:09:32.788Z,98419.09
2018-05-25T23:12:01.036Z,98408.63
2018-05-25T23:14:29.297Z,98407.78
2018-05-25T23:16:57.564Z,98409.31
2018-05-25T23:19:25.816Z,98413.56
2018-05-25T23:21:54.065Z,98410.04
2018-05-25T23:24:22.349Z,98419.88
2018-05-25T23:26:51.428Z,98414.44
2018-05-25T23:29:19.737Z,98417.45
2018-05-25T23:31:48.784Z,98415.92
2018-05-25T23:34:17.044Z,98411.17
2018-05-25T23:36:45.298Z,98413.05
2018-05-25T23:39:13.601Z,98409.02
2018-05-25T23:41:41.927Z,98408.98
2018-05-25T23:44:10.997Z,98414.44
2018-05-25T23:46:39.255Z,98411.84
2018-05-25T23:49:07.572Z,98411.36
2018-05-25T23:51:35.857Z,98411.27
2018-05-25T23:54:04.871Z,98406.96
2018-05-25T23:56:33.141Z,98412.27
2018-05-25T23:59:01.418Z,98422.81
